Time;durP1;ratioP1;P1;durP2;ratioP2;P2;SDS_P1;SDS_P2;PMS_P1;PMS_P2;Temp;Humidity;BMP_temperature;BMP_pressure;BME280_temperature;BME280_humidity;BME280_pressure;Samples;Min_cycle;Max_cycle;Signal;HPM_P1;HPM_P2
2021/01/28 00:00:15;;;;;;;16.13;5.80;;;12.00;99.90;;;;;;2114069;28;20035;-72
2021/01/28 00:01:16;;;;;;;20.17;5.07;;;12.00;99.90;;;;;;2106168;28;20089;-72
2021/01/28 00:02:16;;;;;;;13.48;5.53;;;12.00;99.90;;;;;;2105729;28;20024;-72
2021/01/28 00:03:17;;;;;;;20.00;5.30;;;12.00;99.90;;;;;;2108148;28;20027;-72
2021/01/28 00:04:18;;;;;;;14.95;5.22;;;12.00;99.90;;;;;;2121619;27;20023;-71
2021/01/28 00:05:19;;;;;;;15.98;5.95;;;12.00;99.90;;;;;;2113200;28;20548;-72
2021/01/28 00:06:20;;;;;;;16.58;5.07;;;12.00;99.90;;;;;;2104984;28;20024;-73
2021/01/28 00:07:20;;;;;;;15.43;5.05;;;12.10;99.90;;;;;;2104688;28;20039;-72
2021/01/28 00:08:21;;;;;;;13.75;5.18;;;12.10;99.90;;;;;;2112798;28;20023;-72
2021/01/28 00:09:22;;;;;;;14.43;5.03;;;12.00;99.90;;;;;;2111837;28;20038;-72
2021/01/28 00:10:23;;;;;;;15.40;5.30;;;12.10;99.90;;;;;;2109673;28;20024;-72
2021/01/28 00:11:24;;;;;;;11.00;4.55;;;12.10;99.90;;;;;;2113940;28;20072;-72
2021/01/28 00:12:25;;;;;;;17.13;4.80;;;12.10;99.90;;;;;;2112642;28;20523;-72
2021/01/28 00:13:25;;;;;;;14.60;4.90;;;12.10;99.90;;;;;;2113086;28;20095;-72
2021/01/28 00:14:26;;;;;;;16.58;4.75;;;12.10;99.90;;;;;;2106575;28;20944;-73
2021/01/28 00:15:30;;;;;;;15.80;4.82;;;12.10;99.90;;;;;;2111735;28;20016;-72
2021/01/28 00:16:31;;;;;;;13.07;5.50;;;12.10;99.90;;;;;;2119937;27;20030;-72
2021/01/28 00:17:32;;;;;;;17.05;4.88;;;12.10;99.90;;;;;;2121797;27;20102;-72
2021/01/28 00:18:33;;;;;;;14.50;4.78;;;12.10;99.90;;;;;;2113672;28;20016;-71
2021/01/28 00:19:33;;;;;;;13.30;4.85;;;12.10;99.90;;;;;;2113423;28;20019;-72
2021/01/28 00:20:47;;;;;;;14.20;5.15;;;12.10;99.90;;;;;;2104718;28;20027;-71
2021/01/28 00:21:48;;;;;;;10.52;5.13;;;12.00;99.90;;;;;;2107459;28;20035;-71
2021/01/28 00:22:49;;;;;;;12.48;4.72;;;12.00;99.90;;;;;;2119696;27;20035;-71
2021/01/28 00:23:50;;;;;;;13.68;5.15;;;12.00;99.90;;;;;;2118378;27;20059;-71
2021/01/28 00:24:50;;;;;;;18.20;5.55;;;12.00;99.90;;;;;;2107530;28;20091;-72
2021/01/28 00:25:51;;;;;;;13.50;5.15;;;12.00;99.90;;;;;;2105257;28;20057;-71
2021/01/28 00:26:52;;;;;;;20.38;5.93;;;12.00;99.90;;;;;;2112537;28;20019;-72
2021/01/28 00:27:53;;;;;;;17.75;5.20;;;12.00;99.90;;;;;;2115299;28;20078;-71
2021/01/28 00:28:54;;;;;;;17.75;4.95;;;12.00;99.90;;;;;;2113337;28;20537;-71
2021/01/28 00:29:55;;;;;;;11.43;4.68;;;12.00;99.90;;;;;;2109969;28;20032;-72
2021/01/28 00:30:55;;;;;;;16.52;4.95;;;12.00;99.90;;;;;;2112729;28;20016;-71
2021/01/28 00:31:56;;;;;;;13.32;5.43;;;12.00;99.90;;;;;;2107480;28;20095;-72
2021/01/28 00:32:57;;;;;;;13.23;5.57;;;12.00;99.90;;;;;;2107891;28;20074;-72
2021/01/28 00:33:58;;;;;;;15.57;4.57;;;12.00;99.90;;;;;;2104723;28;20028;-71
2021/01/28 00:34:58;;;;;;;20.73;5.40;;;12.00;99.90;;;;;;2109241;28;20077;-71
2021/01/28 00:35:59;;;;;;;18.30;4.97;;;12.00;99.90;;;;;;2113248;28;20467;-72
2021/01/28 00:37:00;;;;;;;15.98;5.47;;;12.00;99.90;;;;;;2115907;27;20102;-72
2021/01/28 00:38:03;;;;;;;17.75;4.40;;;12.00;99.90;;;;;;2106417;28;20039;-71
2021/01/28 00:39:04;;;;;;;14.60;4.93;;;12.00;99.90;;;;;;2107962;28;20053;-72
2021/01/28 00:40:06;;;;;;;14.50;4.60;;;12.00;99.90;;;;;;2110701;28;20056;-71
2021/01/28 00:41:10;;;;;;;15.93;4.38;;;12.00;99.90;;;;;;2113195;28;20046;-72
2021/01/28 00:42:10;;;;;;;17.77;4.75;;;12.00;99.90;;;;;;2112381;28;20263;-72
2021/01/28 00:43:12;;;;;;;10.55;4.35;;;12.00;99.90;;;;;;2104797;28;20131;-72
2021/01/28 00:44:12;;;;;;;18.73;4.45;;;12.00;99.90;;;;;;2112295;28;20110;-72
2021/01/28 00:45:14;;;;;;;16.27;4.55;;;12.00;99.90;;;;;;2121007;27;20019;-71
2021/01/28 00:46:15;;;;;;;15.98;4.22;;;12.00;99.90;;;;;;2113212;28;20048;-72
2021/01/28 00:47:16;;;;;;;16.63;4.20;;;12.00;99.90;;;;;;2112580;28;20069;-72
2021/01/28 00:48:19;;;;;;;11.27;3.97;;;12.00;99.90;;;;;;2113199;28;20415;-72
2021/01/28 00:49:19;;;;;;;12.10;4.25;;;11.90;99.90;;;;;;2111604;28;20016;-72
2021/01/28 00:50:22;;;;;;;14.45;4.15;;;11.90;99.90;;;;;;2111450;28;20114;-71
2021/01/28 00:51:23;;;;;;;12.20;3.67;;;11.80;99.90;;;;;;2113587;28;20016;-72
2021/01/28 00:52:24;;;;;;;10.85;3.97;;;11.80;99.90;;;;;;2108546;28;20043;-72
2021/01/28 00:53:25;;;;;;;16.65;4.05;;;11.80;99.90;;;;;;2105252;28;20576;-72
2021/01/28 00:54:25;;;;;;;14.43;4.00;;;11.80;99.90;;;;;;2112390;28;20118;-72
2021/01/28 00:55:26;;;;;;;16.45;4.03;;;11.80;99.90;;;;;;2119156;28;20030;-72
2021/01/28 00:56:27;;;;;;;13.50;3.45;;;11.80;99.90;;;;;;2115025;28;20487;-72
2021/01/28 00:57:27;;;;;;;15.52;3.78;;;11.80;99.90;;;;;;2109085;28;20100;-72
2021/01/28 00:58:28;;;;;;;14.98;3.83;;;11.90;99.90;;;;;;2113469;28;20106;-72
2021/01/28 00:59:29;;;;;;;18.23;3.55;;;11.80;99.90;;;;;;2113226;28;20027;-72
2021/01/28 01:00:34;;;;;;;14.00;3.47;;;11.80;99.90;;;;;;2112133;28;20035;-72
2021/01/28 01:01:34;;;;;;;16.77;4.13;;;11.80;99.90;;;;;;2112984;28;20019;-72
2021/01/28 01:02:35;;;;;;;19.60;5.00;;;11.80;99.90;;;;;;2117361;28;20442;-72
2021/01/28 01:03:36;;;;;;;18.65;4.60;;;11.80;99.90;;;;;;2105967;28;20032;-72
2021/01/28 01:04:36;;;;;;;17.40;4.68;;;11.80;99.90;;;;;;2105178;28;20055;-72
2021/01/28 01:05:38;;;;;;;18.13;4.30;;;11.80;99.90;;;;;;2111653;28;20051;-71
2021/01/28 01:06:38;;;;;;;17.83;3.55;;;11.80;99.90;;;;;;2104496;28;20047;-72
2021/01/28 01:07:39;;;;;;;20.38;4.38;;;11.80;99.90;;;;;;2112420;28;20531;-72
2021/01/28 01:08:40;;;;;;;22.23;4.18;;;11.80;99.90;;;;;;2110913;28;20035;-72
2021/01/28 01:09:41;;;;;;;17.60;3.75;;;11.80;99.90;;;;;;2104312;28;20062;-71
2021/01/28 01:10:43;;;;;;;13.93;3.58;;;11.80;99.90;;;;;;2108762;28;20024;-71
2021/01/28 01:11:44;;;;;;;20.58;4.07;;;11.80;99.90;;;;;;2113322;28;20067;-71
2021/01/28 01:12:44;;;;;;;17.02;3.55;;;11.70;99.90;;;;;;2112958;28;20391;-71
2021/01/28 01:13:46;;;;;;;16.52;3.53;;;11.70;99.90;;;;;;2113605;28;20464;-72
2021/01/28 01:14:46;;;;;;;12.77;3.50;;;11.70;99.90;;;;;;2113846;28;20020;-72
2021/01/28 01:15:47;;;;;;;19.15;3.95;;;11.70;99.90;;;;;;2113243;28;20065;-72
2021/01/28 01:16:48;;;;;;;14.93;4.25;;;11.70;99.90;;;;;;2113837;28;20061;-72
2021/01/28 01:17:49;;;;;;;14.95;3.70;;;11.70;99.90;;;;;;2111580;28;20019;-72
2021/01/28 01:18:50;;;;;;;14.07;4.18;;;11.70;99.90;;;;;;2095971;28;20053;-72
2021/01/28 01:19:50;;;;;;;22.52;3.95;;;11.70;99.90;;;;;;2113116;28;20052;-71
2021/01/28 01:20:51;;;;;;;10.70;3.40;;;11.70;99.90;;;;;;2122075;27;20097;-71
2021/01/28 01:21:52;;;;;;;10.55;2.85;;;11.70;99.90;;;;;;2123053;27;20553;-72
2021/01/28 01:22:53;;;;;;;17.50;4.38;;;11.70;99.90;;;;;;2122615;27;20015;-71
2021/01/28 01:23:54;;;;;;;19.45;3.22;;;11.70;99.90;;;;;;2114884;28;20026;-72
2021/01/28 01:24:55;;;;;;;13.52;3.50;;;11.70;99.90;;;;;;2108879;28;20054;-72
2021/01/28 01:25:56;;;;;;;16.02;3.58;;;11.70;99.90;;;;;;2108851;28;20024;-72
2021/01/28 01:26:57;;;;;;;13.57;3.28;;;11.80;99.90;;;;;;2115260;28;20107;-72
2021/01/28 01:27:58;;;;;;;10.55;3.05;;;11.80;99.90;;;;;;2114695;28;20024;-71
2021/01/28 01:28:58;;;;;;;11.50;2.92;;;11.80;99.90;;;;;;2114702;28;20024;-71
2021/01/28 01:29:59;;;;;;;14.43;3.33;;;11.80;99.90;;;;;;2114577;28;20023;-72
2021/01/28 01:31:00;;;;;;;11.77;2.95;;;11.80;99.90;;;;;;2108216;28;20544;-71
2021/01/28 01:32:01;;;;;;;12.43;3.13;;;11.80;99.90;;;;;;2114676;28;20030;-72
2021/01/28 01:33:02;;;;;;;12.43;3.45;;;11.80;99.90;;;;;;2114140;28;20055;-72
2021/01/28 01:34:02;;;;;;;12.05;3.05;;;11.80;99.90;;;;;;2113679;28;20069;-72
2021/01/28 01:35:08;;;;;;;11.50;2.83;;;11.80;99.90;;;;;;2111392;28;20039;-71
2021/01/28 01:36:09;;;;;;;14.02;3.13;;;11.90;99.90;;;;;;2110000;28;20008;-71
2021/01/28 01:37:10;;;;;;;14.45;2.80;;;11.90;99.90;;;;;;2114487;28;20020;-72
2021/01/28 01:38:11;;;;;;;11.50;3.05;;;11.90;99.90;;;;;;2107460;28;20403;-71
2021/01/28 01:39:12;;;;;;;14.32;3.90;;;11.90;99.90;;;;;;2097683;28;20035;-72
2021/01/28 01:40:18;;;;;;;10.35;2.92;;;11.90;99.90;;;;;;2105627;28;20042;-71
2021/01/28 01:41:19;;;;;;;13.43;2.95;;;11.90;99.90;;;;;;2114669;28;20111;-74
2021/01/28 01:42:20;;;;;;;14.50;3.22;;;11.90;99.90;;;;;;2113298;28;20019;-71
2021/01/28 01:43:20;;;;;;;12.43;2.80;;;11.90;99.90;;;;;;2111902;28;20077;-72
2021/01/28 01:44:21;;;;;;;16.00;2.72;;;11.90;99.90;;;;;;2115230;28;20487;-71
2021/01/28 01:45:32;;;;;;;11.10;2.55;;;11.90;99.90;;;;;;2114583;28;20059;-71
2021/01/28 01:46:35;;;;;;;10.93;3.13;;;11.90;99.90;;;;;;2114392;28;20114;-72
2021/01/28 01:47:41;;;;;;;11.95;2.85;;;11.90;99.90;;;;;;2114108;28;20123;-71
2021/01/28 01:48:50;;;;;;;8.00;2.10;;;11.90;99.90;;;;;;2107703;28;20599;-72
2021/01/28 01:49:51;;;;;;;9.55;2.63;;;11.80;99.90;;;;;;2112226;28;20182;-72
2021/01/28 01:51:06;;;;;;;9.50;2.40;;;11.90;99.90;;;;;;2112137;28;20098;-71
2021/01/28 01:52:09;;;;;;;8.70;2.35;;;11.90;99.90;;;;;;2109046;28;20028;-70
2021/01/28 01:53:20;;;;;;;11.07;2.50;;;11.90;99.90;;;;;;2114278;28;20066;-71
2021/01/28 01:54:32;;;;;;;9.32;2.50;;;11.80;99.90;;;;;;2114389;28;20471;-72
2021/01/28 01:55:33;;;;;;;;;;;11.80;99.90;;;;;;2112512;28;20103;-71
2021/01/28 01:56:45;;;;;;;8.55;2.10;;;11.80;99.90;;;;;;2122634;27;19910;-71
2021/01/28 01:57:46;;;;;;;6.55;1.90;;;11.80;99.90;;;;;;2121223;27;20046;-72
2021/01/28 01:59:10;;;;;;;7.82;2.25;;;11.90;99.90;;;;;;2114499;28;20023;-71
2021/01/28 02:00:15;;;;;;;6.70;2.00;;;11.80;99.90;;;;;;2114380;28;20047;-72
2021/01/28 02:01:19;;;;;;;6.93;2.00;;;11.80;99.90;;;;;;2106510;28;20016;-71
2021/01/28 02:02:22;;;;;;;5.65;1.90;;;11.80;99.90;;;;;;2108551;28;20081;-71
2021/01/28 02:03:23;;;;;;;11.43;2.85;;;11.80;99.90;;;;;;2115267;27;20028;-71
2021/01/28 02:04:24;;;;;;;7.65;2.17;;;11.90;99.90;;;;;;2122385;27;20027;-72
2021/01/28 02:05:30;;;;;;;7.85;2.10;;;11.80;99.90;;;;;;2119926;27;20479;-71
2021/01/28 02:06:46;;;;;;;6.15;1.92;;;11.80;99.90;;;;;;2106443;28;20035;-72
2021/01/28 02:07:48;;;;;;;3.75;1.33;;;11.90;99.90;;;;;;2118447;27;20609;-71
2021/01/28 02:08:50;;;;;;;;;;;11.90;99.90;;;;;;2116637;27;20111;-71
2021/01/28 02:09:51;;;;;;;5.40;1.60;;;11.90;99.90;;;;;;2107088;28;20330;-71
2021/01/28 02:10:52;;;;;;;8.50;1.77;;;11.90;99.90;;;;;;2110013;28;20034;-72
2021/01/28 02:11:52;;;;;;;8.68;2.00;;;11.80;99.90;;;;;;2114939;28;20523;-71
2021/01/28 02:12:54;;;;;;;8.57;1.88;;;11.80;99.90;;;;;;2122093;27;20502;-71
2021/01/28 02:13:58;;;;;;;7.32;1.92;;;11.90;99.90;;;;;;2114144;28;20537;-72
2021/01/28 02:14:59;;;;;;;11.15;2.15;;;11.80;99.90;;;;;;2113146;28;20531;-71
2021/01/28 02:16:00;;;;;;;8.57;1.75;;;11.80;99.90;;;;;;2106766;27;20107;-72
2021/01/28 02:17:08;;;;;;;6.20;1.65;;;11.80;99.90;;;;;;2106507;28;20032;-71
2021/01/28 02:18:09;;;;;;;8.43;1.60;;;11.90;99.90;;;;;;2105344;28;20531;-71
2021/01/28 02:19:21;;;;;;;10.60;1.50;;;11.90;99.90;;;;;;2099339;28;20071;-72
2021/01/28 02:20:31;;;;;;;7.93;1.70;;;11.90;99.90;;;;;;2107776;28;20384;-71
2021/01/28 02:21:35;;;;;;;6.68;1.80;;;11.90;99.90;;;;;;2112069;28;20106;-72
2021/01/28 02:23:05;;;;;;;8.65;1.67;;;11.90;99.90;;;;;;2114550;28;20694;-72
2021/01/28 02:24:16;;;;;;;6.95;1.65;;;11.90;99.90;;;;;;2114466;28;20031;-72
2021/01/28 02:25:30;;;;;;;9.48;1.73;;;11.90;99.90;;;;;;2111438;28;20026;-71
2021/01/28 02:26:32;;;;;;;12.00;2.20;;;11.80;99.90;;;;;;2106772;28;20074;-71
2021/01/28 02:27:33;;;;;;;8.98;1.88;;;11.80;99.90;;;;;;2108404;28;20035;-71
2021/01/28 02:28:34;;;;;;;8.98;1.98;;;11.80;99.90;;;;;;2114438;28;20102;-71
2021/01/28 02:29:35;;;;;;;7.90;2.00;;;11.80;99.90;;;;;;2113128;28;20027;-71
2021/01/28 02:30:37;;;;;;;9.43;1.70;;;11.80;99.90;;;;;;2106123;28;20028;-71
2021/01/28 02:31:40;;;;;;;6.68;1.50;;;11.80;99.90;;;;;;2110857;28;20419;-72
2021/01/28 02:32:41;;;;;;;11.10;1.98;;;11.80;99.90;;;;;;2116290;27;20141;-71
2021/01/28 02:33:46;;;;;;;8.27;1.98;;;11.90;99.90;;;;;;2119897;27;20212;-72
2021/01/28 02:34:47;;;;;;;9.00;1.67;;;11.80;99.90;;;;;;2111703;28;20016;-72
2021/01/28 02:35:50;;;;;;;8.75;1.63;;;11.80;99.90;;;;;;2113714;28;20498;-72
2021/01/28 02:36:53;;;;;;;13.57;1.98;;;11.80;99.90;;;;;;2104468;28;20415;-71
2021/01/28 02:37:55;;;;;;;9.73;1.80;;;11.80;99.90;;;;;;2113714;28;20471;-72
2021/01/28 02:38:56;;;;;;;9.32;1.83;;;11.80;99.90;;;;;;2105610;28;20664;-71
2021/01/28 02:39:56;;;;;;;10.90;1.95;;;11.90;99.90;;;;;;2113286;28;20073;-72
2021/01/28 02:40:57;;;;;;;9.95;1.55;;;11.80;99.90;;;;;;2114874;28;20041;-71
2021/01/28 02:42:06;;;;;;;6.88;1.50;;;11.80;99.90;;;;;;2113855;28;20092;-71
2021/01/28 02:43:07;;;;;;;9.27;1.70;;;11.90;99.90;;;;;;2112686;28;20024;-71
2021/01/28 02:44:08;;;;;;;6.75;1.67;;;11.80;99.90;;;;;;2111307;28;20034;-70
2021/01/28 02:45:15;;;;;;;9.57;1.60;;;11.80;99.90;;;;;;2112643;28;20087;-71
2021/01/28 02:46:16;;;;;;;14.43;2.15;;;11.80;99.90;;;;;;2106143;28;20663;-71
2021/01/28 02:47:17;;;;;;;7.13;1.73;;;11.80;99.90;;;;;;2109517;28;20070;-71
2021/01/28 02:48:18;;;;;;;8.80;1.80;;;11.80;99.90;;;;;;2113902;28;20028;-71
2021/01/28 02:49:19;;;;;;;4.60;1.33;;;11.80;99.90;;;;;;2105816;28;20047;-71
2021/01/28 02:50:20;;;;;;;9.05;1.75;;;11.70;99.90;;;;;;2104998;28;20101;-71
2021/01/28 02:51:21;;;;;;;11.40;1.58;;;11.70;99.90;;;;;;2106176;28;20080;-71
2021/01/28 02:52:22;;;;;;;7.95;2.22;;;11.70;99.90;;;;;;2110092;28;20020;-71
2021/01/28 02:53:23;;;;;;;11.20;1.83;;;11.70;99.90;;;;;;2112368;28;20020;-70
2021/01/28 02:54:24;;;;;;;8.32;1.58;;;11.70;99.90;;;;;;2116757;27;20032;-70
2021/01/28 02:55:27;;;;;;;6.63;1.60;;;11.70;99.90;;;;;;2117588;27;20023;-71
2021/01/28 02:56:28;;;;;;;8.60;2.10;;;11.70;99.90;;;;;;2114504;28;20030;-71
2021/01/28 02:57:29;;;;;;;7.68;1.60;;;11.70;99.90;;;;;;2108775;28;20031;-70
2021/01/28 02:58:29;;;;;;;7.68;1.85;;;11.70;99.90;;;;;;2105253;28;20028;-71
2021/01/28 02:59:30;;;;;;;7.70;1.90;;;11.70;99.90;;;;;;2116709;27;20522;-72
2021/01/28 03:00:34;;;;;;;10.48;1.67;;;11.70;99.90;;;;;;2114618;27;20087;-70
2021/01/28 03:01:36;;;;;;;10.25;2.00;;;11.70;99.90;;;;;;2118334;27;20020;-71
2021/01/28 03:02:37;;;;;;;7.72;1.38;;;11.70;99.90;;;;;;2104820;28;20603;-71
2021/01/28 03:03:37;;;;;;;10.30;1.40;;;11.70;99.90;;;;;;2097201;28;20029;-70
2021/01/28 03:04:39;;;;;;;12.68;1.98;;;11.70;99.90;;;;;;2112506;28;20024;-71
2021/01/28 03:05:40;;;;;;;10.43;1.88;;;11.70;99.90;;;;;;2113493;28;20024;-71
2021/01/28 03:06:40;;;;;;;8.75;1.75;;;11.70;99.90;;;;;;2111972;28;20507;-71
2021/01/28 03:07:41;;;;;;;8.80;1.50;;;11.70;99.90;;;;;;2118362;27;20074;-72
2021/01/28 03:08:42;;;;;;;9.90;1.67;;;11.70;99.90;;;;;;2105609;28;20076;-72
2021/01/28 03:09:43;;;;;;;7.45;1.35;;;11.70;99.90;;;;;;2113670;28;20015;-71
2021/01/28 03:10:44;;;;;;;6.15;1.38;;;11.70;99.90;;;;;;2113068;28;20615;-71
2021/01/28 03:11:45;;;;;;;7.82;1.48;;;11.70;99.90;;;;;;2113812;28;20024;-71
2021/01/28 03:12:46;;;;;;;5.35;1.60;;;11.70;99.90;;;;;;2107239;28;20116;-70
2021/01/28 03:13:47;;;;;;;7.15;1.58;;;11.70;99.90;;;;;;2106953;28;20496;-71
2021/01/28 03:14:47;;;;;;;9.07;1.23;;;11.70;99.90;;;;;;2113534;28;20031;-71
2021/01/28 03:15:48;;;;;;;9.40;2.30;;;11.70;99.90;;;;;;2113573;28;20099;-71
2021/01/28 03:16:49;;;;;;;9.43;1.40;;;11.70;99.90;;;;;;2105917;28;20024;-70
2021/01/28 03:17:51;;;;;;;8.90;1.85;;;11.70;99.90;;;;;;2111442;28;20016;-71
2021/01/28 03:18:52;;;;;;;;;;;11.60;99.90;;;;;;2113284;28;20039;-71
2021/01/28 03:19:53;;;;;;;6.05;1.20;;;11.60;99.90;;;;;;2105120;28;19911;-71
2021/01/28 03:20:53;;;;;;;5.68;1.67;;;11.60;99.90;;;;;;2112032;28;20024;-72
2021/01/28 03:21:54;;;;;;;11.85;1.75;;;11.60;99.90;;;;;;2114355;28;20051;-71
2021/01/28 03:22:57;;;;;;;12.60;1.65;;;11.60;99.90;;;;;;2117966;27;20475;-72
2021/01/28 03:23:58;;;;;;;11.43;1.40;;;11.60;99.90;;;;;;2113366;28;20019;-71
2021/01/28 03:24:58;;;;;;;12.50;1.60;;;11.50;99.90;;;;;;2114442;28;20026;-72
2021/01/28 03:25:59;;;;;;;12.00;1.50;;;11.50;99.90;;;;;;2110625;28;20016;-71
2021/01/28 03:27:00;;;;;;;11.55;1.67;;;11.50;99.90;;;;;;2105972;28;20016;-72
2021/01/28 03:28:01;;;;;;;11.13;1.17;;;11.40;99.90;;;;;;2109771;28;20055;-72
2021/01/28 03:29:04;;;;;;;20.10;2.72;;;11.40;99.90;;;;;;2113735;28;20133;-72
2021/01/28 03:30:08;;;;;;;12.10;1.80;;;11.40;99.90;;;;;;2112986;28;20043;-72
2021/01/28 03:31:09;;;;;;;11.75;1.75;;;11.40;99.90;;;;;;2109036;28;20018;-72
2021/01/28 03:32:10;;;;;;;8.85;1.50;;;11.40;99.90;;;;;;2113652;28;20046;-72
2021/01/28 03:33:16;;;;;;;14.80;2.25;;;11.30;99.90;;;;;;2106619;28;20027;-72
2021/01/28 03:34:17;;;;;;;9.98;1.70;;;11.30;99.90;;;;;;2104479;28;20028;-72
2021/01/28 03:35:19;;;;;;;15.25;1.60;;;11.30;99.90;;;;;;2111823;28;20935;-72
2021/01/28 03:36:20;;;;;;;13.52;2.28;;;11.30;99.90;;;;;;2113568;28;20024;-71
2021/01/28 03:37:21;;;;;;;8.27;1.45;;;11.30;99.90;;;;;;2113690;28;20478;-70
2021/01/28 03:38:22;;;;;;;6.57;1.63;;;11.30;99.90;;;;;;2108353;28;20047;-71
2021/01/28 03:39:22;;;;;;;7.90;1.33;;;11.30;99.90;;;;;;2104482;28;20535;-70
2021/01/28 03:40:26;;;;;;;10.85;1.58;;;11.30;99.90;;;;;;2108635;28;20050;-70
2021/01/28 03:41:26;;;;;;;7.35;1.30;;;11.30;99.90;;;;;;2104098;28;20028;-70
2021/01/28 03:42:27;;;;;;;15.65;1.90;;;11.30;99.90;;;;;;2111614;28;20020;-71
2021/01/28 03:43:29;;;;;;;11.48;1.48;;;11.30;99.90;;;;;;2111501;28;20034;-71
2021/01/28 03:44:30;;;;;;;9.23;1.23;;;11.30;99.90;;;;;;2113411;28;20523;-70
2021/01/28 03:45:31;;;;;;;5.80;1.00;;;11.30;99.90;;;;;;2116947;27;20050;-71
2021/01/28 03:46:31;;;;;;;4.20;0.90;;;11.30;99.90;;;;;;2113600;28;20427;-71
2021/01/28 03:47:33;;;;;;;6.00;1.08;;;11.30;99.90;;;;;;2113387;28;20499;-71
2021/01/28 03:48:33;;;;;;;5.95;1.67;;;11.40;99.90;;;;;;2112859;28;20082;-71
2021/01/28 03:49:34;;;;;;;9.52;1.20;;;11.40;99.90;;;;;;2113630;28;20028;-71
2021/01/28 03:50:36;;;;;;;4.00;0.77;;;11.40;99.90;;;;;;2112005;28;20495;-71
2021/01/28 03:51:37;;;;;;;;;;;11.50;99.90;;;;;;2113439;28;20058;-72
2021/01/28 03:52:37;;;;;;;5.15;1.35;;;11.50;99.90;;;;;;2112849;28;19939;-72
2021/01/28 03:53:38;;;;;;;9.07;0.85;;;11.50;99.90;;;;;;2113536;28;20383;-72
2021/01/28 03:54:39;;;;;;;6.55;1.10;;;11.50;99.90;;;;;;2114189;28;20016;-72
2021/01/28 03:55:39;;;;;;;5.72;1.20;;;11.50;99.90;;;;;;2109400;28;20023;-72
2021/01/28 03:56:40;;;;;;;5.10;1.05;;;11.50;99.90;;;;;;2105092;28;20048;-72
2021/01/28 03:57:41;;;;;;;3.75;1.00;;;11.50;99.90;;;;;;2109945;28;20024;-72
2021/01/28 03:58:41;;;;;;;7.43;1.35;;;11.50;99.90;;;;;;2113133;28;20035;-71
2021/01/28 03:59:42;;;;;;;4.32;1.02;;;11.50;99.90;;;;;;2114222;28;20012;-72
2021/01/28 04:00:43;;;;;;;4.82;1.10;;;11.50;99.90;;;;;;2112779;28;20026;-71
2021/01/28 04:01:43;;;;;;;11.18;1.33;;;11.50;99.90;;;;;;2113380;28;20106;-72
2021/01/28 04:02:44;;;;;;;2.80;0.90;;;11.50;99.90;;;;;;2109471;28;20102;-72
2021/01/28 04:03:45;;;;;;;4.22;0.90;;;11.50;99.90;;;;;;2113323;28;20051;-72
2021/01/28 04:04:46;;;;;;;4.65;0.90;;;11.50;99.90;;;;;;2114139;28;20491;-71
2021/01/28 04:05:47;;;;;;;2.60;0.82;;;11.50;99.90;;;;;;2113940;28;20560;-71
2021/01/28 04:06:47;;;;;;;3.38;0.57;;;11.50;99.90;;;;;;2113509;28;20035;-71
2021/01/28 04:07:49;;;;;;;2.60;0.65;;;11.50;99.90;;;;;;2112676;28;20376;-72
2021/01/28 04:08:50;;;;;;;5.05;0.93;;;11.50;99.90;;;;;;2121190;27;20098;-72
2021/01/28 04:09:50;;;;;;;2.78;0.73;;;11.50;99.90;;;;;;2113456;28;20368;-72
2021/01/28 04:10:51;;;;;;;1.77;0.73;;;11.50;99.90;;;;;;2112770;28;20020;-71
2021/01/28 04:11:52;;;;;;;1.45;0.68;;;11.50;99.90;;;;;;2112195;28;20024;-71
2021/01/28 04:12:53;;;;;;;3.95;0.80;;;11.60;99.90;;;;;;2098303;28;20062;-71
2021/01/28 04:13:53;;;;;;;3.60;1.02;;;11.50;99.90;;;;;;2109920;28;20051;-71
2021/01/28 04:14:54;;;;;;;5.93;0.88;;;11.50;99.90;;;;;;2114029;28;20102;-72
2021/01/28 04:15:55;;;;;;;4.63;0.80;;;11.50;99.90;;;;;;2113589;28;20012;-72
2021/01/28 04:16:55;;;;;;;6.80;0.80;;;11.50;99.90;;;;;;2121740;27;20020;-71
2021/01/28 04:17:57;;;;;;;4.95;1.13;;;11.50;99.90;;;;;;2121350;27;20507;-72
2021/01/28 04:18:58;;;;;;;3.33;0.70;;;11.40;99.90;;;;;;2120945;27;20047;-71
2021/01/28 04:19:58;;;;;;;5.28;1.05;;;11.40;99.90;;;;;;2120447;27;20031;-71
2021/01/28 04:20:59;;;;;;;4.85;1.33;;;11.40;99.90;;;;;;2116830;27;20020;-72
2021/01/28 04:22:00;;;;;;;5.78;1.13;;;11.40;99.90;;;;;;2105097;28;20036;-72
2021/01/28 04:23:01;;;;;;;8.73;0.90;;;11.40;99.90;;;;;;2102898;28;20027;-71
2021/01/28 04:24:03;;;;;;;4.28;0.70;;;11.40;99.90;;;;;;2103408;28;20016;-72
2021/01/28 04:25:05;;;;;;;2.88;0.43;;;11.40;99.90;;;;;;2096807;28;20107;-71
2021/01/28 04:26:06;;;;;;;6.10;0.73;;;11.40;99.90;;;;;;2109700;28;20061;-71
2021/01/28 04:27:06;;;;;;;4.78;0.77;;;11.40;99.90;;;;;;2114080;28;20484;-71
2021/01/28 04:28:07;;;;;;;5.20;0.95;;;11.40;99.90;;;;;;2113189;28;20014;-71
2021/01/28 04:29:08;;;;;;;2.92;0.70;;;11.40;99.90;;;;;;2121102;27;20027;-71
2021/01/28 04:30:11;;;;;;;4.82;0.88;;;11.40;99.90;;;;;;2113209;28;20062;-71
2021/01/28 04:31:12;;;;;;;7.60;1.15;;;11.30;99.90;;;;;;2100882;28;20111;-71
2021/01/28 04:32:13;;;;;;;5.90;1.00;;;11.30;99.90;;;;;;2110587;28;20776;-71
2021/01/28 04:33:13;;;;;;;7.15;1.13;;;11.30;99.90;;;;;;2112660;28;20049;-71
2021/01/28 04:34:14;;;;;;;6.82;0.93;;;11.30;99.90;;;;;;2113555;28;20375;-71
2021/01/28 04:35:15;;;;;;;7.55;1.23;;;11.20;99.90;;;;;;2113301;28;20020;-71
2021/01/28 04:36:16;;;;;;;3.40;0.63;;;11.20;99.90;;;;;;2102035;28;20017;-71
2021/01/28 04:37:17;;;;;;;5.93;0.93;;;11.20;99.90;;;;;;2102988;28;20488;-71
2021/01/28 04:38:18;;;;;;;4.80;1.10;;;11.30;99.90;;;;;;2112764;28;20033;-71
2021/01/28 04:39:19;;;;;;;4.78;0.80;;;11.30;99.90;;;;;;2113672;28;20079;-72
2021/01/28 04:40:42;;;;;;;7.50;0.90;;;11.20;99.90;;;;;;2113860;28;20054;-72
2021/01/28 04:41:43;;;;;;;5.50;0.90;;;11.20;99.90;;;;;;2112200;28;20027;-72
2021/01/28 04:42:45;;;;;;;3.65;0.90;;;11.20;99.90;;;;;;2112038;28;20438;-72
2021/01/28 04:43:51;;;;;;;4.18;0.68;;;11.20;99.90;;;;;;2121077;27;20019;-72
2021/01/28 04:44:52;;;;;;;2.92;0.70;;;11.30;99.90;;;;;;2112454;28;20458;-72
2021/01/28 04:45:59;;;;;;;2.47;0.70;;;11.30;99.90;;;;;;2112286;28;20144;-72
2021/01/28 04:47:01;;;;;;;4.15;0.82;;;11.30;99.90;;;;;;2113372;28;20019;-72
2021/01/28 04:48:04;;;;;;;5.50;0.65;;;11.30;99.90;;;;;;2113832;28;20058;-72
2021/01/28 04:49:07;;;;;;;4.07;0.70;;;11.40;99.90;;;;;;2111664;28;20023;-72
2021/01/28 04:50:09;;;;;;;3.97;0.80;;;11.40;99.90;;;;;;2113328;28;20035;-72
2021/01/28 04:51:10;;;;;;;4.78;0.65;;;11.40;99.90;;;;;;2121382;28;20027;-71
2021/01/28 04:52:13;;;;;;;2.35;0.60;;;11.30;99.90;;;;;;2113591;28;20039;-71
2021/01/28 04:53:40;;;;;;;3.00;0.70;;;11.40;99.90;;;;;;2113897;28;20019;-71
2021/01/28 04:54:43;;;;;;;4.30;0.75;;;11.30;99.90;;;;;;2113686;27;20016;-71
2021/01/28 04:55:48;;;;;;;4.07;0.80;;;11.40;99.90;;;;;;2114366;28;20039;-71
2021/01/28 04:56:55;;;;;;;6.60;1.23;;;11.30;99.90;;;;;;2106511;28;20094;-71
2021/01/28 04:57:55;;;;;;;4.85;0.70;;;11.30;99.90;;;;;;2106680;28;20028;-71
2021/01/28 04:59:21;;;;;;;8.48;1.20;;;11.30;99.90;;;;;;2106177;28;20016;-71
2021/01/28 05:00:22;;;;;;;6.15;1.20;;;11.30;99.90;;;;;;2114430;28;20040;-71
2021/01/28 05:01:31;;;;;;;9.85;1.10;;;11.30;99.90;;;;;;2115361;28;20031;-71
2021/01/28 05:02:32;;;;;;;13.23;1.67;;;11.20;99.90;;;;;;2107960;28;20089;-71
2021/01/28 05:03:40;;;;;;;7.38;1.75;;;11.20;99.90;;;;;;2107104;28;20145;-71
2021/01/28 05:04:44;;;;;;;10.43;1.60;;;11.20;99.90;;;;;;2114600;28;20055;-71
2021/01/28 05:05:45;;;;;;;13.00;2.17;;;11.20;99.90;;;;;;2110775;28;20024;-71
2021/01/28 05:06:51;;;;;;;15.43;1.60;;;11.20;99.90;;;;;;2106962;28;20040;-71
2021/01/28 05:07:52;;;;;;;15.43;2.10;;;11.10;99.90;;;;;;2111049;28;20063;-71
2021/01/28 05:08:53;;;;;;;17.25;2.40;;;11.10;99.90;;;;;;2106880;28;20028;-72
2021/01/28 05:10:11;;;;;;;14.43;1.90;;;11.10;99.90;;;;;;2115534;28;20447;-71
2021/01/28 05:11:38;;;;;;;12.95;1.42;;;11.10;99.90;;;;;;2111920;28;20099;-71
2021/01/28 05:12:40;;;;;;;16.65;1.70;;;11.10;99.90;;;;;;2101538;28;20032;-70
2021/01/28 05:13:41;;;;;;;;;;;11.00;99.90;;;;;;2111107;28;20220;-71
2021/01/28 05:14:41;;;;;;;13.30;1.38;;;11.10;99.90;;;;;;2106771;28;19908;-71
2021/01/28 05:15:43;;;;;;;17.25;1.70;;;11.00;99.90;;;;;;2116973;27;20031;-71
2021/01/28 05:16:52;;;;;;;5.30;1.00;;;11.00;99.90;;;;;;2114663;28;20026;-71
2021/01/28 05:18:01;;;;;;;7.80;1.23;;;11.00;99.90;;;;;;2112373;28;20019;-70
2021/01/28 05:19:08;;;;;;;9.25;1.38;;;11.00;99.90;;;;;;2112965;28;20048;-71
2021/01/28 05:20:14;;;;;;;15.00;1.52;;;11.00;99.90;;;;;;2107091;28;20028;-70
2021/01/28 05:21:21;;;;;;;10.50;1.45;;;11.00;99.90;;;;;;2116339;27;20072;-70
2021/01/28 05:22:38;;;;;;;19.63;1.80;;;11.00;99.90;;;;;;2115266;27;20834;-70
2021/01/28 05:23:41;;;;;;;8.95;1.10;;;11.00;99.90;;;;;;2115257;28;20055;-71